createdAt,value
2018-07-10T00:01:14.989Z,43.21
2018-07-10T00:02:35.988Z,44.43
2018-07-10T00:03:15.490Z,82.28
2018-07-10T00:04:17.488Z,63.96
2018-07-10T00:05:15.489Z,83.98
2018-07-10T00:06:15.488Z,87.16
2018-07-10T00:07:21.988Z,42.72
2018-07-10T00:08:36.236Z,42.97
2018-07-10T00:09:15.988Z,42.72
2018-07-10T00:10:15.463Z,42.72
2018-07-10T00:11:22.495Z,42.97
2018-07-10T00:12:37.489Z,42.72
2018-07-10T00:13:16.489Z,42.97
2018-07-10T00:14:16.490Z,42.72
2018-07-10T00:15:16.988Z,42.97
2018-07-10T00:16:16.988Z,42.72
2018-07-10T00:17:16.339Z,42.72
2018-07-10T00:18:19.420Z,42.72
2018-07-10T00:19:17.488Z,42.72
2018-07-10T00:20:17.488Z,42.72
2018-07-10T00:21:17.488Z,42.72
2018-07-10T00:22:17.489Z,42.72
2018-07-10T00:23:32.007Z,42.72
2018-07-10T00:24:17.996Z,42.48
2018-07-10T00:25:38.995Z,42.72
2018-07-10T00:26:19.921Z,42.72
2018-07-10T00:31:20.525Z,45.17
2018-07-10T00:32:22.170Z,45.65
2018-07-10T00:35:54.868Z,81.05
2018-07-10T00:36:53.922Z,43.21
2018-07-10T00:37:53.421Z,43.21
2018-07-10T00:41:24.805Z,42.48
2018-07-10T00:42:24.806Z,42.97
2018-07-10T00:43:25.305Z,52.98
2018-07-10T00:44:25.309Z,42.72
2018-07-10T00:45:40.776Z,42.24
2018-07-10T00:48:57.854Z,43.95
2018-07-10T00:49:56.921Z,42.48
2018-07-10T00:50:56.921Z,83.98
2018-07-10T00:51:59.422Z,43.46
2018-07-10T00:52:57.420Z,42.24
2018-07-10T00:53:57.421Z,42.24
2018-07-10T00:54:57.434Z,42.24
2018-07-10T00:58:31.184Z,41.75
2018-07-10T00:59:29.184Z,42.48
2018-07-10T01:00:28.785Z,42.48
2018-07-10T01:01:29.691Z,42.24
2018-07-10T01:02:29.684Z,41.75
2018-07-10T01:03:29.684Z,41.99
2018-07-10T01:04:30.188Z,41.99
2018-07-10T01:05:30.187Z,41.75
2018-07-10T01:06:30.182Z,41.99
2018-07-10T01:07:32.151Z,41.99
2018-07-10T01:08:36.682Z,41.99
2018-07-10T01:09:29.938Z,41.99
2018-07-10T01:10:30.684Z,51.03
2018-07-10T01:11:30.163Z,41.75
2018-07-10T01:12:30.260Z,41.75
2018-07-10T01:13:31.184Z,41.99
2018-07-10T01:14:52.184Z,41.50
2018-07-10T01:15:52.184Z,42.24
2018-07-10T01:16:52.184Z,40.77
2018-07-10T01:17:32.683Z,41.75
2018-07-10T01:18:31.685Z,41.99
2018-07-10T01:19:31.684Z,41.26
2018-07-10T01:20:36.116Z,41.50
2018-07-10T01:21:34.149Z,42.72
2018-07-10T01:25:25.462Z,42.72
2018-07-10T01:26:25.030Z,41.75
2018-07-10T01:27:06.032Z,43.70
2018-07-10T01:28:07.463Z,41.99
2018-07-10T01:29:04.091Z,41.50
2018-07-10T01:30:04.028Z,41.99
2018-07-10T01:31:04.037Z,42.48
2018-07-10T01:32:05.962Z,42.24
2018-07-10T01:33:04.531Z,42.72
2018-07-10T01:34:04.533Z,45.65
2018-07-10T01:35:04.541Z,42.72
2018-07-10T01:38:36.344Z,42.97
2018-07-10T01:39:36.347Z,43.21
2018-07-10T01:40:36.841Z,42.24
2018-07-10T01:41:36.840Z,42.24
2018-07-10T01:42:57.840Z,42.48
2018-07-10T01:43:36.320Z,42.48
2018-07-10T01:44:58.340Z,42.24
2018-07-10T01:45:37.344Z,41.50
2018-07-10T01:46:38.344Z,41.75
2018-07-10T01:47:38.339Z,42.48
2018-07-10T01:48:36.935Z,46.88
2018-07-10T01:49:37.841Z,42.24
2018-07-10T01:50:37.840Z,41.50
2018-07-10T01:51:37.334Z,41.99
2018-07-10T01:53:01.342Z,46.39
2018-07-10T01:53:37.578Z,42.24
2018-07-10T01:54:59.342Z,42.24
2018-07-10T01:55:38.343Z,43.21
2018-07-10T01:56:40.841Z,42.72
2018-07-10T02:00:37.232Z,41.99
2018-07-10T02:06:13.365Z,43.70
2018-07-10T02:07:13.362Z,44.19
2018-07-10T02:08:16.292Z,44.43
2018-07-10T02:09:15.860Z,49.56
2018-07-10T02:10:13.860Z,43.70
2018-07-10T02:11:13.952Z,42.48
2018-07-10T02:12:35.357Z,43.21
2018-07-10T02:13:14.364Z,42.97
2018-07-10T02:14:15.792Z,42.97
2018-07-10T02:15:14.364Z,42.48
2018-07-10T02:16:14.867Z,43.46
2018-07-10T02:22:40.235Z,45.65
2018-07-10T02:23:17.755Z,42.24
2018-07-10T02:27:10.541Z,47.61
2018-07-10T02:27:49.533Z,42.72
2018-07-10T02:28:49.132Z,44.68
2018-07-10T02:29:52.033Z,42.97
2018-07-10T02:30:50.033Z,41.99
2018-07-10T02:32:11.034Z,42.48
2018-07-10T02:33:11.530Z,41.26
2018-07-10T02:33:50.527Z,41.02
2018-07-10T02:34:50.536Z,42.72
2018-07-10T02:35:50.560Z,42.97
2018-07-10T02:39:21.634Z,59.08
2018-07-10T02:40:22.284Z,59.33
2018-07-10T02:41:26.216Z,59.08
2018-07-10T02:42:36.784Z,58.84
2018-07-10T02:43:22.139Z,59.81
2018-07-10T02:44:22.826Z,58.35
2018-07-10T02:45:23.317Z,60.55
2018-07-10T02:46:43.419Z,78.86
2018-07-10T02:47:22.513Z,73.73
2018-07-10T02:48:23.316Z,77.64
2018-07-10T02:49:22.666Z,65.19
2018-07-10T02:50:44.284Z,58.35
2018-07-10T02:51:23.785Z,56.88
2018-07-10T02:54:55.191Z,53.22
2018-07-10T02:55:55.191Z,51.27
2018-07-10T02:56:55.691Z,82.52
2018-07-10T02:57:55.691Z,57.86
2018-07-10T02:58:56.690Z,60.30
2018-07-10T02:59:57.692Z,59.57
2018-07-10T03:03:48.457Z,49.32
2018-07-10T03:04:27.451Z,50.54
2018-07-10T03:08:01.216Z,59.33
2018-07-10T03:08:58.737Z,60.30
2018-07-10T03:10:28.149Z,58.35
2018-07-10T03:10:59.716Z,56.64
2018-07-10T03:12:05.716Z,54.44
2018-07-10T03:12:59.716Z,55.18
2018-07-10T03:14:00.215Z,47.85
2018-07-10T03:15:23.148Z,51.03
2018-07-10T03:16:22.668Z,79.10
2018-07-10T03:16:59.645Z,83.25
2018-07-10T03:18:02.731Z,53.22
2018-07-10T03:18:59.833Z,51.76
2018-07-10T03:20:00.722Z,51.76
2018-07-10T03:21:00.717Z,45.17
2018-07-10T03:22:00.721Z,46.63
2018-07-10T03:23:08.215Z,43.46
2018-07-10T03:26:37.018Z,82.28
2018-07-10T03:27:32.586Z,46.39
2018-07-10T03:28:33.099Z,56.40
2018-07-10T03:29:54.085Z,85.94
2018-07-10T03:30:34.555Z,49.80
2018-07-10T03:31:33.086Z,50.54
2018-07-10T03:35:04.860Z,83.01
2018-07-10T03:36:05.362Z,82.28
2018-07-10T03:37:05.360Z,55.66
2018-07-10T03:38:05.360Z,82.03
2018-07-10T03:39:05.367Z,47.12
2018-07-10T03:40:05.860Z,81.30
2018-07-10T03:41:05.861Z,78.37
2018-07-10T03:42:05.860Z,61.28
2018-07-10T03:43:05.867Z,58.84
2018-07-10T03:44:07.793Z,77.64
2018-07-10T03:45:12.794Z,54.44
2018-07-10T03:46:06.389Z,46.14
2018-07-10T03:47:05.828Z,47.12
2018-07-10T03:50:37.413Z,51.27
2018-07-10T03:51:38.078Z,53.22
2018-07-10T03:52:38.570Z,59.08
2018-07-10T03:53:38.593Z,83.98
2018-07-10T03:54:38.571Z,83.50
2018-07-10T03:55:59.573Z,83.25
2018-07-10T03:57:06.070Z,79.83
2018-07-10T03:57:39.077Z,44.19
2018-07-10T03:58:39.070Z,85.21
2018-07-10T03:59:39.071Z,44.68
2018-07-10T04:04:42.267Z,45.90
2018-07-10T04:05:48.270Z,81.05
2018-07-10T04:07:05.765Z,82.28
2018-07-10T04:08:02.975Z,46.39
2018-07-10T04:08:42.779Z,53.22
2018-07-10T04:09:43.772Z,82.28
2018-07-10T04:10:42.791Z,83.01
2018-07-10T04:12:05.200Z,84.72
2018-07-10T04:13:04.271Z,51.76
2018-07-10T04:14:04.267Z,82.76
2018-07-10T04:14:43.267Z,48.58
2018-07-10T04:16:05.699Z,51.51
2018-07-10T04:16:44.765Z,82.28
2018-07-10T04:17:45.214Z,62.26
2018-07-10T04:18:43.767Z,49.80
2018-07-10T04:19:43.767Z,66.89
2018-07-10T04:23:18.518Z,81.79
2018-07-10T04:26:47.399Z,49.56
2018-07-10T04:33:21.902Z,81.05
2018-07-10T04:34:21.899Z,79.59
2018-07-10T04:35:21.501Z,83.74
2018-07-10T04:40:25.171Z,80.81
2018-07-10T04:41:25.174Z,47.61
2018-07-10T04:42:25.741Z,85.21
2018-07-10T04:43:25.671Z,79.83
2018-07-10T04:44:25.677Z,84.72
2018-07-10T04:45:25.736Z,46.63
2018-07-10T04:46:28.126Z,79.35
2018-07-10T04:47:26.171Z,81.05
2018-07-10T04:48:25.394Z,82.28
2018-07-10T04:49:26.233Z,81.05
2018-07-10T04:50:32.103Z,85.69
2018-07-10T04:53:57.924Z,83.98
2018-07-10T04:54:57.923Z,87.65
2018-07-10T04:55:58.423Z,49.07
2018-07-10T04:56:58.424Z,46.39
2018-07-10T04:57:58.424Z,81.79
2018-07-10T04:58:58.425Z,82.03
2018-07-10T04:59:58.024Z,83.50
2018-07-10T05:03:36.316Z,68.36
2018-07-10T05:04:30.315Z,80.32
2018-07-10T05:05:30.829Z,83.98
2018-07-10T05:06:32.815Z,79.10
2018-07-10T05:07:32.747Z,82.76
2018-07-10T05:08:51.815Z,82.03
2018-07-10T05:09:48.250Z,52.73
2018-07-10T05:10:31.318Z,66.65
2018-07-10T05:11:32.768Z,81.54
2018-07-10T05:12:32.796Z,76.66
2018-07-10T05:13:54.747Z,83.50
2018-07-10T05:14:52.816Z,80.08
2018-07-10T05:15:52.852Z,78.86
2018-07-10T05:16:52.864Z,81.54
2018-07-10T05:17:32.805Z,82.28
2018-07-10T05:18:31.499Z,84.23
2018-07-10T05:19:53.314Z,82.28
2018-07-10T05:20:32.316Z,79.59
2018-07-10T05:21:38.316Z,79.83
2018-07-10T05:26:35.533Z,80.57
2018-07-10T05:27:35.529Z,60.30
2018-07-10T05:28:42.093Z,83.01
2018-07-10T05:29:36.033Z,81.05
2018-07-10T05:30:57.031Z,84.47
2018-07-10T05:31:36.135Z,83.98
2018-07-10T05:36:38.582Z,81.79
2018-07-10T05:37:38.684Z,81.30
2018-07-10T05:38:53.740Z,78.86
2018-07-10T05:42:12.437Z,82.28
2018-07-10T05:43:10.481Z,80.81
2018-07-10T05:44:32.505Z,80.57
2018-07-10T05:45:11.504Z,82.03
2018-07-10T05:46:11.509Z,82.28
2018-07-10T05:47:11.503Z,78.37
2018-07-10T05:48:12.008Z,79.83
2018-07-10T05:49:12.006Z,80.81
2018-07-10T05:50:12.005Z,78.37
2018-07-10T05:51:12.005Z,80.81
2018-07-10T05:52:14.505Z,82.52
2018-07-10T05:56:04.877Z,79.59
2018-07-10T05:56:43.355Z,46.88
2018-07-10T05:58:05.378Z,83.25
2018-07-10T06:01:15.779Z,80.32
2018-07-10T06:02:15.770Z,78.61
2018-07-10T06:03:36.374Z,82.28
2018-07-10T06:04:16.258Z,82.28
2018-07-10T06:05:16.258Z,80.81
2018-07-10T06:06:16.258Z,80.57
2018-07-10T06:07:22.770Z,83.01
2018-07-10T06:08:36.993Z,80.81
2018-07-10T06:09:16.759Z,80.57
2018-07-10T06:10:37.761Z,84.72
2018-07-10T06:11:23.258Z,80.81
2018-07-10T06:12:39.253Z,81.30
2018-07-10T06:13:17.258Z,54.20
2018-07-10T06:14:18.733Z,81.30
2018-07-10T06:15:17.816Z,80.57
2018-07-10T06:16:17.775Z,78.61
2018-07-10T06:17:17.774Z,82.03
2018-07-10T06:18:17.767Z,60.30
2018-07-10T06:19:20.259Z,77.15
2018-07-10T06:20:17.495Z,77.15
2018-07-10T06:21:38.575Z,81.54
2018-07-10T06:22:18.298Z,70.07
2018-07-10T06:23:18.254Z,81.05
2018-07-10T06:24:18.760Z,80.08
2018-07-10T06:27:51.623Z,79.83
2018-07-10T06:28:52.114Z,78.13
2018-07-10T06:29:51.663Z,59.08
2018-07-10T06:31:10.879Z,81.05
2018-07-10T06:31:56.683Z,53.96
2018-07-10T06:32:53.710Z,60.06
2018-07-10T06:33:50.682Z,83.25
2018-07-10T06:35:05.207Z,77.64
2018-07-10T06:35:52.667Z,83.01
2018-07-10T06:36:53.184Z,82.03
2018-07-10T06:37:51.196Z,78.37
2018-07-10T06:41:22.946Z,69.09
2018-07-10T06:42:22.936Z,79.59
2018-07-10T06:43:24.369Z,80.81
2018-07-10T06:44:22.667Z,72.27
2018-07-10T06:45:23.461Z,48.58
2018-07-10T06:46:23.436Z,82.76
2018-07-10T06:47:23.936Z,80.08
2018-07-10T06:48:37.996Z,79.59
2018-07-10T06:49:23.935Z,61.77
2018-07-10T06:50:23.442Z,82.28
2018-07-10T06:51:24.441Z,83.25
2018-07-10T06:52:24.485Z,79.35
2018-07-10T06:53:24.888Z,78.13
2018-07-10T06:54:23.923Z,80.32
2018-07-10T06:55:24.032Z,78.37
2018-07-10T06:56:26.405Z,78.13
2018-07-10T06:57:24.936Z,77.88
2018-07-10T07:01:02.589Z,75.93
2018-07-10T07:01:56.993Z,82.52
2018-07-10T07:02:57.093Z,68.60
2018-07-10T07:03:57.091Z,79.35
2018-07-10T07:04:57.147Z,61.52
2018-07-10T07:05:57.088Z,82.76
2018-07-10T07:06:57.089Z,80.08
2018-07-10T07:08:11.589Z,82.28
2018-07-10T07:11:29.001Z,80.81
2018-07-10T07:12:28.593Z,80.32
2018-07-10T07:13:31.492Z,47.12
2018-07-10T07:17:21.439Z,49.80
2018-07-10T07:18:24.034Z,48.58
2018-07-10T07:19:01.536Z,52.25
2018-07-10T07:20:01.528Z,79.35
2018-07-10T07:21:22.536Z,79.10
2018-07-10T07:22:01.551Z,60.79
2018-07-10T07:23:23.041Z,79.59
2018-07-10T07:24:24.503Z,80.08
2018-07-10T07:25:01.374Z,81.79
2018-07-10T07:26:01.469Z,65.43
2018-07-10T07:27:04.536Z,80.81
2018-07-10T07:28:23.556Z,84.23
2018-07-10T07:29:23.534Z,54.93
2018-07-10T07:30:01.894Z,82.52
2018-07-10T07:31:23.537Z,79.10
2018-07-10T07:32:24.034Z,81.05
2018-07-10T07:33:24.032Z,57.86
2018-07-10T07:34:03.035Z,81.05
2018-07-10T07:35:23.498Z,80.32
2018-07-10T07:38:34.784Z,84.72
2018-07-10T07:39:34.784Z,68.60
2018-07-10T07:45:38.056Z,74.46
2018-07-10T07:46:40.065Z,77.64
2018-07-10T07:47:38.561Z,78.86
2018-07-10T07:57:16.188Z,79.83
2018-07-10T07:59:16.052Z,59.08
2018-07-10T08:00:16.064Z,56.15
2018-07-10T08:01:16.051Z,58.59
2018-07-10T08:02:16.051Z,57.13
2018-07-10T08:03:16.551Z,81.05
2018-07-10T08:04:28.489Z,82.03
2018-07-10T08:05:16.380Z,59.08
2018-07-10T08:06:16.736Z,80.08
2018-07-10T08:07:17.055Z,59.81
2018-07-10T08:08:19.986Z,77.15
2018-07-10T08:09:17.086Z,77.15
2018-07-10T08:10:17.987Z,78.86
2018-07-10T08:13:17.361Z,79.35
2018-07-10T08:14:17.551Z,58.84
2018-07-10T08:23:24.352Z,79.10
2018-07-10T08:29:27.500Z,60.79
2018-07-10T08:30:50.363Z,79.59
2018-07-10T08:31:30.491Z,81.79
2018-07-10T08:32:27.786Z,81.05
2018-07-10T08:33:29.477Z,79.35
2018-07-10T08:38:34.532Z,80.57
2018-07-10T08:39:33.029Z,77.64
2018-07-10T08:43:24.304Z,79.83
2018-07-10T08:44:24.306Z,81.05
2018-07-10T08:47:57.572Z,85.21
2018-07-10T08:48:35.574Z,76.66
2018-07-10T08:49:35.574Z,79.59
2018-07-10T08:50:38.108Z,75.44
2018-07-10T08:51:42.076Z,79.35
2018-07-10T08:52:59.074Z,80.08
2018-07-10T08:53:35.564Z,76.90
2018-07-10T08:54:42.583Z,51.03
2018-07-10T09:03:44.665Z,61.52
2018-07-10T09:09:48.298Z,80.32
2018-07-10T09:10:46.338Z,75.20
2018-07-10T09:11:46.837Z,78.37
2018-07-10T09:13:00.837Z,81.54
2018-07-10T09:14:09.313Z,77.64
2018-07-10T09:14:52.836Z,79.59
2018-07-10T09:18:20.559Z,73.73
2018-07-10T09:22:10.529Z,79.59
2018-07-10T09:25:23.273Z,81.05
2018-07-10T09:26:42.809Z,81.30
2018-07-10T09:27:21.412Z,79.35
2018-07-10T09:30:54.669Z,77.39
2018-07-10T09:31:53.671Z,77.39
2018-07-10T09:37:21.337Z,76.17
2018-07-10T09:37:58.867Z,79.83
2018-07-10T09:41:49.636Z,76.42
2018-07-10T09:42:32.068Z,80.08
2018-07-10T09:43:31.136Z,82.03
2018-07-10T09:44:28.363Z,79.10
2018-07-10T09:48:23.627Z,77.88
2018-07-10T09:49:22.553Z,49.80
2018-07-10T09:50:18.609Z,76.66
2018-07-10T09:51:00.362Z,79.10
2018-07-10T09:52:23.561Z,68.85
2018-07-10T09:55:32.739Z,81.05
2018-07-10T09:56:53.737Z,81.79
2018-07-10T09:57:35.238Z,81.05
2018-07-10T09:58:55.236Z,78.37
2018-07-10T09:59:33.240Z,78.61
2018-07-10T10:00:54.239Z,79.10
2018-07-10T10:02:00.823Z,79.10
2018-07-10T10:02:47.739Z,76.17
2018-07-10T10:03:33.738Z,68.60
2018-07-10T10:04:33.739Z,81.79
2018-07-10T10:05:33.358Z,77.39
2018-07-10T10:06:34.241Z,55.66
2018-07-10T10:07:56.246Z,77.39
2018-07-10T10:08:33.727Z,80.32
2018-07-10T10:09:34.738Z,75.68
2018-07-10T10:10:34.748Z,75.44
2018-07-10T10:11:55.744Z,80.57
2018-07-10T10:12:34.797Z,69.82
2018-07-10T10:17:39.365Z,80.32
2018-07-10T10:18:37.899Z,82.76
2018-07-10T10:19:37.497Z,80.32
2018-07-10T10:20:40.408Z,81.05
2018-07-10T10:21:38.406Z,86.67
2018-07-10T10:22:52.400Z,89.36
2018-07-10T10:26:10.169Z,84.47
2018-07-10T10:27:10.170Z,82.28
2018-07-10T10:28:10.668Z,81.05
2018-07-10T10:33:18.019Z,49.56
2018-07-10T10:34:33.951Z,82.52
2018-07-10T10:35:14.953Z,80.57
2018-07-10T10:36:35.021Z,81.30
2018-07-10T10:37:15.453Z,84.72
2018-07-10T10:38:14.018Z,82.03
2018-07-10T10:39:14.021Z,78.13
2018-07-10T10:42:45.778Z,81.54
2018-07-10T10:43:46.285Z,69.82
2018-07-10T10:45:07.285Z,82.28
2018-07-10T10:48:31.672Z,83.25
2018-07-10T10:49:19.123Z,80.81
2018-07-10T10:50:39.164Z,82.03
2018-07-10T10:51:38.371Z,79.10
2018-07-10T10:54:51.134Z,79.10
2018-07-10T10:55:49.617Z,52.73
2018-07-10T10:56:53.592Z,81.79
2018-07-10T10:58:13.119Z,76.17
2018-07-10T11:01:23.638Z,48.10
2018-07-10T11:02:27.716Z,82.76
2018-07-10T11:03:22.130Z,74.22
2018-07-10T11:09:55.765Z,81.30
2018-07-10T11:10:56.420Z,74.71
2018-07-10T11:11:56.925Z,74.71
2018-07-10T11:22:23.750Z,72.02
2018-07-10T11:23:04.759Z,83.98
2018-07-10T11:26:35.017Z,81.54
2018-07-10T11:27:35.014Z,80.08
2018-07-10T11:28:35.018Z,84.72
2018-07-10T11:29:35.018Z,72.27
2018-07-10T11:33:06.776Z,82.28
2018-07-10T11:34:06.981Z,80.57
2018-07-10T11:37:38.524Z,81.79
2018-07-10T11:42:42.112Z,77.64
2018-07-10T11:43:42.115Z,80.81
2018-07-10T11:45:03.599Z,81.54
2018-07-10T11:48:15.920Z,77.15
2018-07-10T11:49:14.483Z,78.13
2018-07-10T11:50:14.489Z,71.04
2018-07-10T11:51:35.528Z,83.25
2018-07-10T11:52:16.977Z,66.89
2018-07-10T11:55:47.237Z,80.57
2018-07-10T11:56:47.241Z,82.03
2018-07-10T11:57:47.742Z,72.51
2018-07-10T12:06:53.554Z,79.35
2018-07-10T12:07:54.544Z,100.83
2018-07-10T12:11:46.239Z,79.83
2018-07-10T12:12:26.805Z,80.57
2018-07-10T12:13:24.938Z,80.08
2018-07-10T12:14:25.805Z,79.83
2018-07-10T12:15:46.807Z,79.10
2018-07-10T12:16:25.815Z,79.35
2018-07-10T12:17:26.307Z,65.92
2018-07-10T12:23:31.260Z,45.41
2018-07-10T12:31:25.209Z,80.81
2018-07-10T12:32:03.686Z,84.72
2018-07-10T12:33:31.709Z,81.05
2018-07-10T12:36:36.093Z,47.12
2018-07-10T12:37:36.092Z,83.50
2018-07-10T12:38:36.590Z,79.35
2018-07-10T12:39:57.588Z,81.54
2018-07-10T12:40:35.953Z,84.47
2018-07-10T12:41:57.062Z,83.01
2018-07-10T12:42:39.088Z,86.43
2018-07-10T12:43:38.086Z,62.26
2018-07-10T12:44:37.093Z,85.94
2018-07-10T12:45:38.086Z,83.01
2018-07-10T12:46:57.705Z,83.50
2018-07-10T12:47:58.590Z,80.32
2018-07-10T12:48:36.943Z,83.01
2018-07-10T12:49:39.020Z,77.88
2018-07-10T12:51:05.092Z,51.51
2018-07-10T12:54:09.484Z,78.13
2018-07-10T12:55:23.483Z,80.57
2018-07-10T12:56:16.056Z,79.35
2018-07-10T12:57:15.983Z,65.67
2018-07-10T12:58:09.365Z,76.42
2018-07-10T13:01:57.614Z,82.52
2018-07-10T13:05:13.377Z,79.10
2018-07-10T13:06:15.377Z,84.47
2018-07-10T13:07:20.875Z,80.57
2018-07-10T13:08:36.875Z,81.79
2018-07-10T13:09:13.877Z,78.13
2018-07-10T13:10:13.923Z,80.32
2018-07-10T13:11:14.379Z,83.25
2018-07-10T13:15:05.275Z,82.03
2018-07-10T13:16:03.300Z,81.79
2018-07-10T13:17:24.798Z,78.61
2018-07-10T13:18:03.800Z,70.07
2018-07-10T13:19:24.799Z,83.25
2018-07-10T13:20:03.805Z,78.13
2018-07-10T13:21:25.298Z,81.54
2018-07-10T13:22:03.527Z,83.25
2018-07-10T13:23:25.299Z,79.35
2018-07-10T13:24:04.299Z,82.28
2018-07-10T13:25:04.804Z,82.28
2018-07-10T13:26:04.808Z,81.05
2018-07-10T13:27:05.846Z,84.23
2018-07-10T13:28:04.799Z,80.57
2018-07-10T13:29:26.300Z,81.05
2018-07-10T13:32:36.700Z,81.05
2018-07-10T13:33:36.707Z,84.72
2018-07-10T13:34:51.197Z,64.94
2018-07-10T13:35:58.247Z,81.05
2018-07-10T13:36:36.561Z,83.01
2018-07-10T13:37:37.197Z,52.73
2018-07-10T13:38:36.798Z,82.03
2018-07-10T13:39:40.682Z,48.58
2018-07-10T13:40:37.697Z,83.25
2018-07-10T13:41:37.701Z,81.79
2018-07-10T13:42:40.134Z,82.52
2018-07-10T13:44:01.675Z,84.47
2018-07-10T13:44:59.201Z,55.66
2018-07-10T13:45:38.197Z,82.52
2018-07-10T13:46:46.130Z,79.83
2018-07-10T13:48:01.697Z,67.14
2018-07-10T13:51:11.658Z,69.58
2018-07-10T13:52:10.219Z,77.64
2018-07-10T13:53:31.220Z,80.08
2018-07-10T13:58:12.772Z,53.71
2018-07-10T13:59:13.413Z,82.76
2018-07-10T14:00:13.028Z,82.28
2018-07-10T14:01:13.913Z,80.08
2018-07-10T14:02:13.914Z,81.05
2018-07-10T14:03:13.920Z,83.98
2018-07-10T14:04:28.414Z,83.50
2018-07-10T14:05:20.414Z,81.54
2018-07-10T14:06:35.413Z,83.50
2018-07-10T14:07:35.415Z,82.03
2018-07-10T14:08:35.915Z,80.81
2018-07-10T14:09:14.846Z,79.10
2018-07-10T14:10:35.913Z,84.47
2018-07-10T14:11:14.911Z,80.57
2018-07-10T14:12:38.490Z,83.01
2018-07-10T14:13:16.885Z,80.08
2018-07-10T14:16:46.927Z,80.08
2018-07-10T14:17:46.924Z,81.79
2018-07-10T14:22:49.488Z,80.81
2018-07-10T14:23:50.141Z,81.30
2018-07-10T14:27:23.839Z,80.57
2018-07-10T14:28:23.417Z,83.01
2018-07-10T14:29:50.839Z,81.79
2018-07-10T14:32:53.782Z,83.50
2018-07-10T14:33:53.783Z,80.08
2018-07-10T14:34:53.436Z,85.69
2018-07-10T14:38:25.642Z,80.08
2018-07-10T14:39:25.644Z,82.76
2018-07-10T14:40:25.242Z,80.08
2018-07-10T14:41:26.141Z,82.03
2018-07-10T14:42:26.149Z,82.03
2018-07-10T14:43:25.647Z,81.30
2018-07-10T14:44:32.644Z,83.98
2018-07-10T14:45:47.640Z,81.79
2018-07-10T14:46:26.644Z,82.03
2018-07-10T14:47:26.642Z,81.79
2018-07-10T14:48:27.149Z,82.52
2018-07-10T14:49:27.147Z,83.98
2018-07-10T14:50:27.099Z,81.30
2018-07-10T14:51:27.143Z,82.52
2018-07-10T14:52:26.749Z,87.16
2018-07-10T14:56:21.937Z,83.01
2018-07-10T14:57:26.004Z,85.21
2018-07-10T14:58:20.504Z,81.05
2018-07-10T14:58:58.793Z,86.18
2018-07-10T15:00:22.537Z,82.76
2018-07-10T15:01:00.966Z,68.36
2018-07-10T15:02:00.009Z,80.32
2018-07-10T15:03:02.028Z,81.54
2018-07-10T15:04:00.008Z,84.47
2018-07-10T15:05:00.004Z,85.45
2018-07-10T15:08:31.803Z,80.81
2018-07-10T15:09:31.800Z,85.21
2018-07-10T15:13:03.566Z,81.30
2018-07-10T15:14:24.618Z,84.47
2018-07-10T15:15:04.144Z,66.89
2018-07-10T15:16:27.054Z,84.96
2018-07-10T15:17:04.054Z,81.05
2018-07-10T15:18:04.053Z,85.94
2018-07-10T15:19:03.782Z,85.45
2018-07-10T15:20:05.494Z,83.01
2018-07-10T15:21:03.854Z,84.96
2018-07-10T15:22:04.553Z,82.03
2018-07-10T15:23:04.557Z,82.28
2018-07-10T15:24:26.059Z,81.54
2018-07-10T15:25:05.138Z,86.91
2018-07-10T15:26:04.401Z,85.45
2018-07-10T15:27:26.055Z,82.76
2018-07-10T15:28:25.648Z,83.50
2018-07-10T15:31:36.944Z,82.03
2018-07-10T15:32:36.945Z,81.54
2018-07-10T15:33:37.441Z,85.45
2018-07-10T15:34:51.441Z,83.74
2018-07-10T15:35:58.443Z,81.30
2018-07-10T15:36:37.443Z,83.74
2018-07-10T15:37:37.946Z,83.98
2018-07-10T15:38:37.168Z,81.54
2018-07-10T15:39:37.955Z,83.50
2018-07-10T15:40:37.943Z,84.47
2018-07-10T15:41:37.542Z,83.25
2018-07-10T15:42:38.449Z,83.25
2018-07-10T15:43:38.445Z,83.25
2018-07-10T15:44:39.883Z,83.01
2018-07-10T15:48:10.161Z,83.01
2018-07-10T15:49:10.198Z,82.76
2018-07-10T15:50:10.653Z,83.50
2018-07-10T15:51:10.657Z,82.76
2018-07-10T15:52:10.654Z,85.45
2018-07-10T15:53:10.130Z,82.28
2018-07-10T15:54:11.154Z,79.10
2018-07-10T15:55:11.154Z,82.52
2018-07-10T15:56:11.171Z,83.74
2018-07-10T15:57:11.152Z,78.86
2018-07-10T15:58:25.667Z,83.50
2018-07-10T15:59:11.655Z,66.89
2018-07-10T16:02:49.182Z,86.43
2018-07-10T16:03:50.115Z,83.01
2018-07-10T16:04:43.684Z,80.32
2018-07-10T16:06:04.740Z,61.77
2018-07-10T16:06:43.684Z,63.48
2018-07-10T16:07:43.683Z,82.52
2018-07-10T16:08:44.185Z,83.25
2018-07-10T16:10:05.181Z,63.23
2018-07-10T16:10:44.182Z,74.22
2018-07-10T16:12:05.180Z,80.32
2018-07-10T16:13:05.683Z,87.16
2018-07-10T16:18:47.599Z,87.16
2018-07-10T16:19:47.564Z,81.05
2018-07-10T16:23:25.822Z,84.23
2018-07-10T16:24:19.821Z,64.94
2018-07-10T16:25:19.823Z,82.03
2018-07-10T16:26:22.321Z,84.72
2018-07-10T16:27:22.323Z,80.81
2018-07-10T16:28:20.322Z,84.47
2018-07-10T16:32:13.979Z,83.74
2018-07-10T16:33:12.983Z,81.79
2018-07-10T16:33:53.481Z,54.93
2018-07-10T16:34:52.481Z,87.89
2018-07-10T16:35:52.480Z,55.91
2018-07-10T16:36:52.487Z,83.98
2018-07-10T16:40:23.605Z,44.43
2018-07-10T16:41:45.234Z,82.76
2018-07-10T16:45:19.996Z,85.94
2018-07-10T16:45:56.001Z,82.52
2018-07-10T16:46:56.499Z,83.50
2018-07-10T16:47:56.498Z,50.54
2018-07-10T16:48:56.498Z,85.45
2018-07-10T16:49:56.499Z,83.50
2018-07-10T16:50:59.040Z,82.52
2018-07-10T16:51:56.999Z,80.81
2018-07-10T16:52:57.005Z,85.94
2018-07-10T16:53:56.999Z,81.30
2018-07-10T16:54:57.499Z,46.88
2018-07-10T16:55:58.431Z,85.45
2018-07-10T16:56:57.499Z,81.54
2018-07-10T16:57:57.499Z,81.79
2018-07-10T17:01:35.262Z,83.50
2018-07-10T17:02:29.264Z,79.59
2018-07-10T17:03:32.760Z,81.30
2018-07-10T17:04:29.762Z,51.03
2018-07-10T17:05:50.767Z,74.46
2018-07-10T17:06:50.761Z,61.04
2018-07-10T17:10:23.481Z,81.05
2018-07-10T17:11:22.530Z,45.65
2018-07-10T17:12:22.529Z,62.26
2018-07-10T17:13:02.043Z,81.79
2018-07-10T17:14:02.037Z,82.28
2018-07-10T17:15:01.436Z,84.47
2018-07-10T17:16:02.029Z,64.94
2018-07-10T17:17:06.462Z,83.01
2018-07-10T17:18:03.967Z,83.50
2018-07-10T17:19:07.461Z,80.08
2018-07-10T17:20:02.530Z,86.18
2018-07-10T17:21:02.534Z,83.50
2018-07-10T17:24:49.254Z,82.28
2018-07-10T17:25:34.281Z,83.01
2018-07-10T17:26:55.788Z,80.08
2018-07-10T17:27:36.787Z,63.48
2018-07-10T17:28:37.784Z,84.23
2018-07-10T17:29:34.265Z,59.81
2018-07-10T17:33:26.896Z,85.45
2018-07-10T17:34:06.561Z,75.68
2018-07-10T17:35:06.559Z,83.74
2018-07-10T17:36:09.498Z,70.31
2018-07-10T17:37:28.061Z,83.74
2018-07-10T17:38:06.414Z,73.73
2018-07-10T17:39:28.059Z,81.30
2018-07-10T17:40:28.558Z,82.52
2018-07-10T17:41:09.560Z,73.49
2018-07-10T17:42:07.493Z,86.18
2018-07-10T17:43:07.568Z,77.15
2018-07-10T17:44:28.158Z,83.98
2018-07-10T17:45:08.061Z,83.01
2018-07-10T17:46:08.062Z,48.10
2018-07-10T17:47:09.500Z,49.32
2018-07-10T17:48:07.650Z,83.01
2018-07-10T17:49:08.568Z,46.14
2018-07-10T17:52:40.073Z,81.30
2018-07-10T17:53:40.070Z,82.28
2018-07-10T17:57:11.833Z,84.47
2018-07-10T17:58:11.834Z,84.47
2018-07-10T17:59:13.331Z,86.43
2018-07-10T18:00:13.269Z,83.25
2018-07-10T18:01:12.339Z,64.21
2018-07-10T18:02:12.338Z,81.05
2018-07-10T18:03:12.335Z,82.03
2018-07-10T18:06:44.121Z,62.99
2018-07-10T18:07:44.117Z,84.72
2018-07-10T18:11:15.868Z,62.50
2018-07-10T18:12:15.869Z,59.57
2018-07-10T18:13:37.374Z,60.30
2018-07-10T18:14:17.819Z,82.03
2018-07-10T18:15:16.365Z,84.47
2018-07-10T18:16:37.367Z,89.11
2018-07-10T18:17:15.845Z,72.75
2018-07-10T18:18:36.925Z,73.00
2018-07-10T18:19:16.870Z,76.66
2018-07-10T18:20:16.867Z,71.04
2018-07-10T18:21:16.867Z,81.05
2018-07-10T18:22:16.867Z,82.76
2018-07-10T18:23:18.883Z,79.10
2018-07-10T18:24:16.565Z,84.47
2018-07-10T18:25:17.368Z,58.84
2018-07-10T18:26:20.303Z,49.32
2018-07-10T18:27:17.369Z,47.61
2018-07-10T18:28:31.871Z,83.98
2018-07-10T18:29:38.868Z,66.65
2018-07-10T18:30:17.921Z,45.41
2018-07-10T18:31:17.871Z,47.61
2018-07-10T18:34:49.623Z,48.34
2018-07-10T18:35:49.623Z,84.47
2018-07-10T18:37:10.207Z,82.03
2018-07-10T18:38:11.121Z,80.81
2018-07-10T18:38:50.124Z,79.35